Strona główna
METAR-TAF:

METAR-TAF

Lotnisko :

Büchel, Niemcy

Szerokość geograficzna: 50-10N, Długość geograficzna: 007-04E, wysokość: 478 m

Aktualna obserwacja pogody

Raport powstał 19 minut temu, godzina 06:39 UTC
Wiatr 5 kt od zachód
Temperatura -2°C
Wilgotność 93%
Ciśnienie 1016 hPa
Widzialność: 8000 m
Mało chmury na wysokości 100 ft
Rozproszone chmury na wysokości 1000 ft

METAR: ETSB 280639Z 26005KT 8000 FEW001 SCT010 M02/M03 Q1016 BLACKBLU+BLU TEMPO RED

czas: 07:58 (06:58 UTC)

Prognoza

Raport powstał 13 minut temu, godzina 06:45 UTC
Prognoza ważna od 28 godzina 06 UTC do 28 godzina 15 UTC
Wiatr 12 kt od zachodnio-południowy zachód
Widzialność 10 km lub więcej
Mało chmury na wysokości 100 ft
Przerywane chmury na wysokości 20000 ft
Przejściowo
od 28 godzina 06 UTC do 28 godzina 08 UTC
Wiatr 15 kt od zachód
Widzialność: 4000 m
Rozproszone chmury na wysokości 100 ft
zamglenie

TAF: ETSB 280645Z 2806/2815 24012KT 9999 NSW FEW001 BKN200 TEMPO 2806/2808 28015KT 4000 BR SCT001 BY ETGL

Obserwacja i prognoza pogody dla ponad 4000 lotnisk (raport METAR i TAF).

Dostępne stacje oznaczono żółtymi i czerwonymi punktami na mapie.

Najedź kursorem aby zobaczyć nazwę stacji.

Kliknij aby zobaczyć obserwacje i prognozy pogody.

Aby zmienić mapę: kliknij na zielony przycisk z czarnym krzyżykiem, aby powiększyć; na zielony przycisk z myślnikiem, aby pomniejszyć; na zielone strzałki, aby przejść do map sąsiednich.


METAR-TAF: